sensor_id;sensor_type;location;lat;lon;timestamp;P1;durP1;ratioP1;P2;durP2;ratioP2
61785;SDS011;47692;53.714;11.372;2022-10-22T00:00:33;55.80;;;22.30;;
61785;SDS011;47692;53.714;11.372;2022-10-22T00:02:59;63.77;;;22.37;;
61785;SDS011;47692;53.714;11.372;2022-10-22T00:05:24;45.93;;;21.60;;
61785;SDS011;47692;53.714;11.372;2022-10-22T00:07:49;56.65;;;21.92;;
61785;SDS011;47692;53.714;11.372;2022-10-22T00:10:15;45.57;;;20.77;;
61785;SDS011;47692;53.714;11.372;2022-10-22T00:12:41;56.53;;;21.30;;
61785;SDS011;47692;53.714;11.372;2022-10-22T00:15:07;52.37;;;21.67;;
61785;SDS011;47692;53.714;11.372;2022-10-22T00:17:32;51.67;;;21.50;;
61785;SDS011;47692;53.714;11.372;2022-10-22T00:19:58;50.17;;;21.57;;
61785;SDS011;47692;53.714;11.372;2022-10-22T00:22:23;48.20;;;21.13;;
61785;SDS011;47692;53.714;11.372;2022-10-22T00:24:48;48.07;;;21.30;;
61785;SDS011;47692;53.714;11.372;2022-10-22T00:27:14;54.83;;;21.70;;
61785;SDS011;47692;53.714;11.372;2022-10-22T00:29:39;50.80;;;20.53;;
61785;SDS011;47692;53.714;11.372;2022-10-22T00:32:05;52.37;;;21.67;;
61785;SDS011;47692;53.714;11.372;2022-10-22T00:34:31;55.22;;;22.67;;
61785;SDS011;47692;53.714;11.372;2022-10-22T00:36:57;49.47;;;22.42;;
61785;SDS011;47692;53.714;11.372;2022-10-22T00:39:22;59.57;;;23.00;;
61785;SDS011;47692;53.714;11.372;2022-10-22T00:41:50;73.60;;;23.38;;
61785;SDS011;47692;53.714;11.372;2022-10-22T00:47:19;74.23;;;24.00;;
61785;SDS011;47692;53.714;11.372;2022-10-22T00:49:47;60.00;;;22.65;;
61785;SDS011;47692;53.714;11.372;2022-10-22T00:52:13;48.25;;;22.73;;
61785;SDS011;47692;53.714;11.372;2022-10-22T00:54:39;59.63;;;22.57;;
61785;SDS011;47692;53.714;11.372;2022-10-22T00:57:06;64.15;;;23.67;;
61785;SDS011;47692;53.714;11.372;2022-10-22T00:59:31;60.83;;;23.23;;
61785;SDS011;47692;53.714;11.372;2022-10-22T01:01:57;53.90;;;23.00;;
61785;SDS011;47692;53.714;11.372;2022-10-22T01:04:23;61.08;;;23.75;;
61785;SDS011;47692;53.714;11.372;2022-10-22T01:06:49;49.17;;;22.33;;
61785;SDS011;47692;53.714;11.372;2022-10-22T01:09:20;69.90;;;22.98;;
61785;SDS011;47692;53.714;11.372;2022-10-22T01:12:05;55.85;;;22.60;;
61785;SDS011;47692;53.714;11.372;2022-10-22T01:18:02;48.72;;;22.13;;
61785;SDS011;47692;53.714;11.372;2022-10-22T01:25:49;47.35;;;21.98;;
61785;SDS011;47692;53.714;11.372;2022-10-22T01:31:21;51.53;;;23.35;;
61785;SDS011;47692;53.714;11.372;2022-10-22T01:33:50;54.37;;;22.40;;
61785;SDS011;47692;53.714;11.372;2022-10-22T01:36:17;59.45;;;22.90;;
61785;SDS011;47692;53.714;11.372;2022-10-22T01:38:43;60.78;;;23.70;;
61785;SDS011;47692;53.714;11.372;2022-10-22T01:41:10;66.97;;;23.70;;
61785;SDS011;47692;53.714;11.372;2022-10-22T01:43:36;58.10;;;24.17;;
61785;SDS011;47692;53.714;11.372;2022-10-22T01:46:02;54.03;;;23.03;;
61785;SDS011;47692;53.714;11.372;2022-10-22T01:54:07;61.67;;;24.85;;
61785;SDS011;47692;53.714;11.372;2022-10-22T02:02:07;50.00;;;23.03;;
61785;SDS011;47692;53.714;11.372;2022-10-22T02:07:29;55.55;;;23.17;;
61785;SDS011;47692;53.714;11.372;2022-10-22T02:09:58;55.42;;;24.05;;
61785;SDS011;47692;53.714;11.372;2022-10-22T02:12:25;65.13;;;24.95;;
61785;SDS011;47692;53.714;11.372;2022-10-22T02:14:53;67.40;;;25.77;;
61785;SDS011;47692;53.714;11.372;2022-10-22T02:17:20;63.65;;;25.73;;
61785;SDS011;47692;53.714;11.372;2022-10-22T02:19:48;63.78;;;25.65;;
61785;SDS011;47692;53.714;11.372;2022-10-22T02:22:17;59.95;;;25.88;;
61785;SDS011;47692;53.714;11.372;2022-10-22T02:24:44;62.47;;;24.97;;
61785;SDS011;47692;53.714;11.372;2022-10-22T02:29:57;56.75;;;25.52;;
61785;SDS011;47692;53.714;11.372;2022-10-22T02:32:37;54.08;;;24.63;;
61785;SDS011;47692;53.714;11.372;2022-10-22T02:35:07;51.90;;;24.88;;
61785;SDS011;47692;53.714;11.372;2022-10-22T02:37:37;53.28;;;24.45;;
61785;SDS011;47692;53.714;11.372;2022-10-22T02:40:04;53.78;;;25.63;;
61785;SDS011;47692;53.714;11.372;2022-10-22T02:42:30;58.45;;;25.42;;
61785;SDS011;47692;53.714;11.372;2022-10-22T02:44:56;56.27;;;26.17;;
61785;SDS011;47692;53.714;11.372;2022-10-22T02:47:21;57.10;;;24.63;;
61785;SDS011;47692;53.714;11.372;2022-10-22T02:49:46;53.07;;;24.27;;
61785;SDS011;47692;53.714;11.372;2022-10-22T02:52:12;51.55;;;23.95;;
61785;SDS011;47692;53.714;11.372;2022-10-22T02:54:37;47.83;;;23.53;;
61785;SDS011;47692;53.714;11.372;2022-10-22T02:57:02;48.17;;;23.07;;
61785;SDS011;47692;53.714;11.372;2022-10-22T02:59:28;50.72;;;23.70;;
61785;SDS011;47692;53.714;11.372;2022-10-22T03:01:53;51.63;;;24.10;;
61785;SDS011;47692;53.714;11.372;2022-10-22T03:04:18;49.40;;;23.73;;
61785;SDS011;47692;53.714;11.372;2022-10-22T03:06:44;48.07;;;22.83;;
61785;SDS011;47692;53.714;11.372;2022-10-22T03:09:09;42.27;;;22.70;;
61785;SDS011;47692;53.714;11.372;2022-10-22T03:11:35;44.67;;;22.53;;
61785;SDS011;47692;53.714;11.372;2022-10-22T03:14:00;40.20;;;20.50;;
61785;SDS011;47692;53.714;11.372;2022-10-22T03:16:25;40.43;;;21.43;;
61785;SDS011;47692;53.714;11.372;2022-10-22T03:18:51;41.95;;;21.80;;
61785;SDS011;47692;53.714;11.372;2022-10-22T03:22:17;43.30;;;22.37;;
61785;SDS011;47692;53.714;11.372;2022-10-22T03:24:18;40.42;;;21.50;;
61785;SDS011;47692;53.714;11.372;2022-10-22T03:26:47;38.92;;;21.08;;
61785;SDS011;47692;53.714;11.372;2022-10-22T03:29:14;41.15;;;22.00;;
61785;SDS011;47692;53.714;11.372;2022-10-22T03:31:40;46.83;;;22.75;;
61785;SDS011;47692;53.714;11.372;2022-10-22T03:34:06;41.03;;;21.30;;
61785;SDS011;47692;53.714;11.372;2022-10-22T03:36:31;44.70;;;21.55;;
61785;SDS011;47692;53.714;11.372;2022-10-22T03:38:58;43.83;;;22.25;;
61785;SDS011;47692;53.714;11.372;2022-10-22T03:41:24;45.60;;;23.88;;
61785;SDS011;47692;53.714;11.372;2022-10-22T03:43:50;43.27;;;22.20;;
61785;SDS011;47692;53.714;11.372;2022-10-22T03:46:17;44.10;;;22.27;;
61785;SDS011;47692;53.714;11.372;2022-10-22T03:48:43;43.70;;;22.45;;
61785;SDS011;47692;53.714;11.372;2022-10-22T03:51:08;37.73;;;21.27;;
61785;SDS011;47692;53.714;11.372;2022-10-22T03:53:34;39.40;;;20.88;;
61785;SDS011;47692;53.714;11.372;2022-10-22T03:55:59;39.38;;;21.50;;
61785;SDS011;47692;53.714;11.372;2022-10-22T03:58:25;40.97;;;21.70;;
61785;SDS011;47692;53.714;11.372;2022-10-22T11:56:52;15.60;;;10.10;;
61785;SDS011;47692;53.714;11.372;2022-10-22T12:24:39;10.23;;;3.83;;
